createdAt,value
2022-10-19T00:00:12.251Z,7.10
2022-10-19T00:03:04.347Z,5.90
2022-10-19T00:05:36.349Z,5.30
2022-10-19T00:08:09.226Z,6.80
2022-10-19T00:10:43.722Z,4.80
2022-10-19T00:13:15.608Z,5.90
2022-10-19T00:15:47.680Z,5.20
2022-10-19T00:18:19.679Z,5.90
2022-10-19T00:20:51.721Z,6.60
2022-10-19T00:23:23.682Z,6.00
2022-10-19T00:25:59.643Z,5.50
2022-10-19T00:28:31.831Z,5.50
2022-10-19T00:31:07.485Z,6.70
2022-10-19T00:33:40.062Z,5.80
2022-10-19T00:36:18.892Z,5.20
2022-10-19T00:38:51.136Z,5.50
2022-10-19T00:41:24.038Z,11.40
2022-10-19T00:43:59.574Z,16.50
2022-10-19T00:46:33.671Z,13.70
2022-10-19T00:49:10.724Z,14.90
2022-10-19T00:51:47.832Z,13.40
2022-10-19T00:54:20.724Z,20.30
2022-10-19T00:56:56.290Z,30.90
2022-10-19T00:59:31.915Z,58.30
2022-10-19T01:02:06.478Z,38.40
2022-10-19T01:04:41.575Z,23.00
2022-10-19T01:07:13.955Z,13.00
2022-10-19T01:09:46.112Z,9.70
2022-10-19T01:12:31.532Z,6.30
2022-10-19T01:15:19.585Z,5.40
2022-10-19T01:18:01.106Z,5.00
2022-10-19T01:20:55.529Z,5.20
2022-10-19T01:23:57.247Z,5.90
2022-10-19T01:26:51.220Z,4.20
2022-10-19T01:29:40.570Z,4.70
2022-10-19T01:32:18.001Z,5.50
2022-10-19T01:34:56.099Z,4.20
2022-10-19T01:37:35.580Z,6.10
2022-10-19T01:40:11.949Z,5.00
2022-10-19T01:42:47.809Z,4.50
2022-10-19T01:45:28.338Z,4.60
2022-10-19T01:48:07.070Z,5.00
2022-10-19T01:50:45.227Z,5.00
2022-10-19T01:53:19.333Z,4.80
2022-10-19T01:55:54.233Z,5.20
2022-10-19T01:58:30.035Z,5.90
2022-10-19T02:01:06.494Z,5.30
2022-10-19T02:03:40.663Z,38.00
2022-10-19T02:06:15.113Z,9.90
2022-10-19T02:08:49.754Z,11.20
2022-10-19T02:11:23.282Z,13.10
2022-10-19T02:14:02.187Z,6.50
2022-10-19T02:16:40.051Z,6.80
2022-10-19T02:19:14.562Z,6.80
2022-10-19T02:21:46.827Z,4.70
2022-10-19T02:24:19.139Z,4.90
2022-10-19T02:26:51.431Z,5.70
2022-10-19T02:29:23.747Z,4.60
2022-10-19T02:31:55.894Z,4.90
2022-10-19T02:34:28.569Z,4.30
2022-10-19T02:37:00.810Z,8.10
2022-10-19T02:39:33.136Z,4.50
2022-10-19T02:42:11.175Z,4.40
2022-10-19T02:44:48.640Z,3.90
2022-10-19T02:47:23.702Z,3.80
2022-10-19T02:49:56.037Z,3.70
2022-10-19T02:52:28.083Z,3.30
2022-10-19T02:55:00.125Z,31.40
2022-10-19T02:57:32.793Z,10.90
2022-10-19T03:00:06.133Z,15.40
2022-10-19T03:02:38.228Z,7.00
2022-10-19T03:05:11.647Z,8.50
2022-10-19T03:07:43.575Z,4.80
2022-10-19T03:10:15.559Z,12.20
2022-10-19T03:12:47.548Z,33.00
2022-10-19T03:15:20.681Z,11.20
2022-10-19T03:17:55.648Z,20.50
2022-10-19T03:20:27.611Z,28.40
2022-10-19T03:22:59.630Z,41.80
2022-10-19T03:25:31.603Z,11.00
2022-10-19T03:28:03.797Z,4.40
2022-10-19T03:30:35.760Z,17.80
2022-10-19T03:33:07.750Z,14.80
2022-10-19T03:35:39.698Z,12.20
2022-10-19T03:38:11.675Z,10.50
2022-10-19T03:40:43.893Z,7.20
2022-10-19T03:43:15.794Z,11.90
2022-10-19T03:45:50.038Z,7.20
2022-10-19T03:48:22.103Z,16.50
2022-10-19T03:51:02.153Z,9.80
2022-10-19T03:53:34.423Z,14.10
2022-10-19T03:56:09.318Z,11.60
2022-10-19T04:01:14.829Z,4.50
2022-10-19T04:03:46.935Z,8.90
2022-10-19T04:06:22.123Z,20.60
2022-10-19T04:08:54.494Z,25.80
2022-10-19T04:11:28.644Z,10.00
2022-10-19T04:14:01.937Z,16.60
2022-10-19T04:16:34.593Z,37.10
2022-10-19T04:19:06.579Z,29.50
2022-10-19T04:21:40.543Z,24.50
2022-10-19T04:24:14.503Z,13.00
2022-10-19T04:26:48.514Z,19.40
2022-10-19T04:29:24.969Z,20.10
2022-10-19T04:32:00.101Z,9.90
2022-10-19T04:34:35.167Z,31.60
2022-10-19T04:37:09.648Z,14.70
2022-10-19T04:39:43.479Z,10.20
2022-10-19T04:42:15.373Z,9.00
2022-10-19T04:44:47.280Z,19.40
2022-10-19T04:47:19.218Z,24.40
2022-10-19T04:49:51.217Z,9.40
2022-10-19T04:52:23.156Z,19.70
2022-10-19T04:54:55.163Z,12.00
2022-10-19T04:57:27.073Z,17.60
2022-10-19T04:59:59.067Z,38.40
2022-10-19T05:02:30.974Z,33.30
2022-10-19T05:05:03.014Z,46.50
2022-10-19T05:07:35.302Z,23.40
2022-10-19T05:10:09.684Z,17.50
2022-10-19T05:12:41.657Z,7.10
2022-10-19T05:15:14.094Z,6.00
2022-10-19T05:17:46.081Z,18.90
2022-10-19T05:20:18.070Z,3.70
2022-10-19T05:22:50.021Z,3.40
2022-10-19T05:25:21.983Z,3.40
2022-10-19T05:27:56.802Z,2.60
2022-10-19T05:32:59.129Z,3.70
2022-10-19T05:35:31.162Z,3.20
2022-10-19T05:38:03.099Z,2.20
2022-10-19T05:40:35.190Z,2.80
2022-10-19T05:43:07.102Z,3.20
2022-10-19T05:45:39.053Z,3.30
2022-10-19T05:48:10.937Z,3.80
2022-10-19T05:50:53.178Z,3.30
2022-10-19T05:53:25.262Z,3.30
2022-10-19T05:55:57.266Z,5.40
2022-10-19T05:58:29.177Z,9.30
2022-10-19T06:01:02.909Z,8.30
2022-10-19T06:03:35.295Z,5.00
2022-10-19T06:06:08.994Z,4.30
2022-10-19T06:08:41.467Z,2.80
2022-10-19T06:11:15.697Z,2.80
2022-10-19T06:13:50.469Z,2.70
2022-10-19T06:18:53.365Z,15.30
2022-10-19T06:21:27.875Z,3.80
2022-10-19T06:24:01.653Z,3.80
2022-10-19T06:26:35.082Z,3.50
2022-10-19T06:29:07.672Z,2.70
2022-10-19T06:31:39.714Z,2.10
2022-10-19T06:34:11.729Z,2.80
2022-10-19T06:36:43.743Z,3.30
2022-10-19T06:39:15.640Z,3.50
2022-10-19T06:41:47.582Z,3.00
2022-10-19T06:44:30.135Z,3.40
2022-10-19T06:47:02.200Z,2.50
2022-10-19T06:49:35.950Z,3.60
2022-10-19T06:52:08.386Z,2.40
2022-10-19T06:54:40.322Z,2.00
2022-10-19T06:57:12.394Z,2.40
2022-10-19T06:59:44.342Z,2.20
2022-10-19T07:02:16.713Z,2.40
2022-10-19T07:04:48.670Z,5.00
2022-10-19T07:07:20.711Z,14.40
2022-10-19T07:09:53.635Z,3.90
2022-10-19T07:12:25.662Z,2.20
2022-10-19T07:14:58.231Z,1.70
2022-10-19T07:17:30.272Z,4.60
2022-10-19T07:20:02.169Z,2.70
2022-10-19T07:22:34.263Z,5.10
2022-10-19T07:25:06.891Z,5.30
2022-10-19T07:27:40.670Z,5.80
2022-10-19T07:30:13.527Z,7.10
2022-10-19T07:32:47.115Z,5.40
2022-10-19T07:35:19.469Z,5.80
2022-10-19T07:37:51.426Z,5.90
2022-10-19T07:40:23.437Z,4.90
2022-10-19T07:42:55.518Z,8.50
2022-10-19T07:45:27.521Z,9.00
2022-10-19T07:47:59.883Z,6.80
2022-10-19T07:50:31.851Z,7.20
2022-10-19T07:53:05.411Z,6.80
2022-10-19T07:55:37.998Z,13.80
2022-10-19T07:58:09.935Z,11.10
2022-10-19T08:00:41.900Z,22.10
2022-10-19T08:06:07.847Z,19.30
2022-10-19T08:08:40.840Z,9.40
2022-10-19T08:11:14.717Z,6.60
2022-10-19T08:13:47.091Z,6.80
2022-10-19T08:16:27.449Z,6.40
2022-10-19T08:19:02.419Z,3.70
2022-10-19T08:21:34.905Z,6.00
2022-10-19T08:24:07.732Z,5.70
2022-10-19T08:26:40.700Z,4.00
2022-10-19T08:29:15.063Z,3.40
2022-10-19T08:31:48.501Z,2.90
2022-10-19T08:34:20.424Z,2.80
2022-10-19T08:36:52.338Z,4.80
2022-10-19T08:39:24.331Z,4.90
2022-10-19T08:42:03.478Z,5.40
2022-10-19T08:45:04.055Z,5.10
2022-10-19T08:47:55.098Z,4.90
2022-10-19T08:50:31.809Z,3.70
2022-10-19T08:53:06.279Z,3.30
2022-10-19T08:55:54.034Z,7.80
2022-10-19T08:58:37.487Z,8.70
2022-10-19T09:01:16.494Z,6.50
2022-10-19T09:03:56.326Z,5.90
2022-10-19T09:06:35.550Z,5.70
2022-10-19T09:09:11.538Z,7.50
2022-10-19T09:11:47.500Z,7.10
2022-10-19T09:14:24.467Z,6.60
2022-10-19T09:17:01.111Z,9.90
2022-10-19T09:19:33.549Z,11.40
2022-10-19T09:22:08.938Z,9.40
2022-10-19T09:24:48.694Z,6.80
2022-10-19T09:27:24.407Z,6.30
2022-10-19T09:29:59.496Z,7.80
2022-10-19T09:32:36.601Z,15.90
2022-10-19T09:35:19.500Z,93.20
2022-10-19T09:37:52.674Z,26.20
2022-10-19T09:40:27.726Z,13.90
2022-10-19T09:43:08.699Z,11.00
2022-10-19T09:45:47.349Z,9.10
2022-10-19T09:48:27.830Z,18.60
2022-10-19T09:51:02.299Z,8.40
2022-10-19T09:53:34.324Z,8.30
2022-10-19T09:56:18.494Z,9.50
2022-10-19T09:58:53.300Z,8.60
2022-10-19T10:01:40.226Z,12.10
2022-10-19T10:04:17.814Z,13.50
2022-10-19T10:09:27.335Z,10.90
2022-10-19T10:12:01.062Z,9.40
2022-10-19T10:14:36.485Z,10.10
2022-10-19T10:17:15.696Z,5.10
2022-10-19T10:20:06.810Z,6.00
2022-10-19T10:22:39.349Z,5.90
2022-10-19T10:25:20.342Z,4.40
2022-10-19T10:28:01.592Z,5.10
2022-10-19T10:30:38.063Z,6.00
2022-10-19T10:33:33.186Z,6.20
2022-10-19T10:36:11.094Z,6.70
2022-10-19T10:38:47.415Z,7.10
2022-10-19T10:41:24.136Z,11.50
2022-10-19T10:44:00.985Z,5.90
2022-10-19T10:46:43.795Z,12.70
2022-10-19T10:49:25.050Z,23.00
2022-10-19T10:51:59.541Z,10.10
2022-10-19T10:54:32.962Z,9.10
2022-10-19T10:57:16.914Z,2.60
2022-10-19T10:59:56.073Z,10.30
2022-10-19T11:02:40.386Z,11.10
2022-10-19T11:05:20.752Z,10.00
2022-10-19T11:07:57.795Z,13.40
2022-10-19T11:10:34.343Z,11.10
2022-10-19T11:13:15.602Z,14.30
2022-10-19T11:15:54.845Z,7.40
2022-10-19T11:18:31.408Z,7.20
2022-10-19T11:21:12.207Z,9.70
2022-10-19T11:23:56.339Z,5.60
2022-10-19T11:26:43.106Z,4.10
2022-10-19T11:29:28.623Z,38.40
2022-10-19T11:32:00.917Z,23.80
2022-10-19T11:34:46.101Z,10.10
2022-10-19T11:40:06.362Z,7.20
2022-10-19T11:42:52.343Z,6.80
2022-10-19T11:45:36.346Z,12.50
2022-10-19T11:48:35.149Z,8.80
2022-10-19T11:51:21.660Z,8.10
2022-10-19T11:54:11.176Z,10.00
2022-10-19T11:57:02.888Z,16.80
2022-10-19T11:59:44.261Z,8.90
2022-10-19T12:02:43.022Z,5.20
2022-10-19T12:05:18.674Z,9.40
2022-10-19T12:08:03.814Z,6.50
2022-10-19T12:13:16.900Z,5.50
2022-10-19T12:15:53.807Z,5.10
2022-10-19T12:18:32.690Z,3.40
2022-10-19T12:21:09.575Z,3.90
2022-10-19T12:23:46.852Z,7.90
2022-10-19T12:26:22.360Z,2.80
2022-10-19T12:28:59.615Z,8.40
2022-10-19T12:31:32.781Z,5.20
2022-10-19T12:34:11.279Z,2.60
2022-10-19T12:36:49.073Z,3.80
2022-10-19T12:39:29.575Z,3.90
2022-10-19T12:42:10.797Z,4.00
2022-10-19T12:45:12.073Z,5.10
2022-10-19T12:48:25.985Z,5.20
2022-10-19T12:51:19.009Z,10.60
2022-10-19T12:53:51.850Z,10.90
2022-10-19T12:56:25.721Z,6.00
2022-10-19T12:59:01.590Z,4.90
2022-10-19T13:01:45.510Z,9.70
2022-10-19T13:04:20.573Z,9.00
2022-10-19T13:07:01.527Z,7.70
2022-10-19T13:09:36.892Z,8.60
2022-10-19T13:12:30.368Z,4.60
2022-10-19T13:15:03.857Z,7.00
2022-10-19T13:17:46.385Z,13.80
2022-10-19T13:20:54.604Z,10.50
2022-10-19T13:23:43.050Z,4.10
2022-10-19T13:26:34.373Z,4.10
2022-10-19T13:29:25.204Z,5.00
2022-10-19T13:32:17.202Z,7.00
2022-10-19T13:34:50.180Z,18.70
2022-10-19T13:37:22.607Z,15.30
2022-10-19T13:39:55.361Z,10.90
2022-10-19T13:42:29.363Z,8.30
2022-10-19T13:45:01.333Z,8.50
2022-10-19T13:47:40.656Z,7.80
2022-10-19T13:50:36.085Z,7.40
2022-10-19T13:53:33.300Z,8.00
2022-10-19T13:56:33.917Z,5.60
2022-10-19T13:59:33.502Z,6.70
2022-10-19T14:02:32.435Z,6.20
2022-10-19T14:05:21.541Z,4.60
2022-10-19T14:08:05.094Z,3.10
2022-10-19T14:11:00.039Z,3.50
2022-10-19T14:13:30.673Z,10.80
2022-10-19T14:16:03.208Z,7.80
2022-10-19T14:18:37.679Z,18.00
2022-10-19T14:21:11.442Z,15.20
2022-10-19T14:23:43.578Z,5.00
2022-10-19T14:26:20.669Z,4.40
2022-10-19T14:28:57.710Z,5.60
2022-10-19T14:31:35.741Z,9.50
2022-10-19T14:34:10.462Z,17.40
2022-10-19T14:39:29.767Z,12.80
2022-10-19T14:42:06.919Z,20.50
2022-10-19T14:44:42.307Z,11.10
2022-10-19T14:47:21.921Z,7.10
2022-10-19T14:49:54.521Z,14.90
2022-10-19T14:52:34.075Z,11.00
2022-10-19T14:55:12.766Z,11.20
2022-10-19T14:57:49.499Z,12.80
2022-10-19T15:03:06.301Z,8.30
2022-10-19T15:05:42.673Z,5.70
2022-10-19T15:08:24.508Z,4.20
2022-10-19T15:10:57.009Z,9.10
2022-10-19T15:13:32.857Z,16.20
2022-10-19T15:16:05.115Z,11.70
2022-10-19T15:18:49.222Z,9.50
2022-10-19T15:21:23.319Z,7.80
2022-10-19T15:23:55.529Z,21.50
2022-10-19T15:26:32.461Z,22.80
2022-10-19T15:29:20.679Z,16.20
2022-10-19T15:31:56.554Z,13.40
2022-10-19T15:34:31.013Z,12.30
2022-10-19T15:37:04.000Z,15.10
2022-10-19T15:39:42.137Z,26.90
2022-10-19T15:42:40.556Z,20.10
2022-10-19T15:45:34.355Z,13.40
2022-10-19T15:48:27.529Z,14.10
2022-10-19T15:50:59.740Z,16.80
2022-10-19T15:53:31.678Z,14.90
2022-10-19T15:58:40.565Z,13.10
2022-10-19T16:01:16.968Z,11.60
2022-10-19T16:03:50.058Z,14.40
2022-10-19T16:06:24.462Z,12.20
2022-10-19T16:08:56.628Z,12.00
2022-10-19T16:11:30.187Z,24.50
2022-10-19T16:14:02.260Z,22.30
2022-10-19T16:16:35.214Z,17.80
2022-10-19T16:19:07.264Z,17.60
2022-10-19T16:21:39.294Z,16.80
2022-10-19T16:24:12.412Z,12.80
2022-10-19T16:26:44.329Z,16.00
2022-10-19T16:29:16.300Z,16.20
2022-10-19T16:31:48.214Z,83.20
2022-10-19T16:34:20.250Z,65.60
2022-10-19T16:36:52.216Z,158.10
2022-10-19T16:39:25.661Z,69.00
2022-10-19T16:41:57.587Z,280.60
2022-10-19T16:44:29.653Z,324.80
2022-10-19T16:47:02.160Z,180.80
2022-10-19T16:49:34.231Z,73.90
2022-10-19T16:52:06.573Z,75.10
2022-10-19T16:54:38.748Z,67.10
2022-10-19T16:57:10.715Z,53.70
2022-10-19T16:59:42.704Z,49.90
2022-10-19T17:02:15.065Z,49.60
2022-10-19T17:04:47.208Z,38.20
2022-10-19T17:07:19.639Z,18.90
2022-10-19T17:09:56.752Z,34.10
2022-10-19T17:12:28.808Z,27.80
2022-10-19T17:15:29.854Z,20.80
2022-10-19T17:17:52.600Z,42.00
2022-10-19T17:20:24.590Z,39.40
2022-10-19T17:22:56.498Z,31.40
2022-10-19T17:25:28.631Z,33.60
2022-10-19T17:28:00.618Z,24.60
2022-10-19T17:30:32.646Z,32.80
2022-10-19T17:33:04.539Z,36.00
2022-10-19T17:35:37.935Z,48.50
2022-10-19T17:38:10.233Z,60.00
2022-10-19T17:40:42.240Z,57.70
2022-10-19T17:43:14.406Z,56.20
2022-10-19T17:45:46.318Z,83.20
2022-10-19T17:48:19.128Z,97.60
2022-10-19T17:51:00.732Z,97.70
2022-10-19T17:53:34.055Z,84.40
2022-10-19T17:56:08.233Z,71.00
2022-10-19T17:58:40.470Z,61.60
2022-10-19T18:01:13.714Z,49.30
2022-10-19T18:03:45.979Z,46.00
2022-10-19T18:06:22.177Z,63.60
2022-10-19T18:08:56.033Z,49.90
2022-10-19T18:11:29.998Z,78.10
2022-10-19T18:14:03.160Z,59.00
2022-10-19T18:16:37.256Z,50.20
2022-10-19T18:19:09.775Z,54.10
2022-10-19T18:21:44.064Z,41.30
2022-10-19T18:24:20.125Z,30.90
2022-10-19T18:26:53.292Z,39.70
2022-10-19T18:29:27.156Z,35.50
2022-10-19T18:31:59.259Z,35.30
2022-10-19T18:34:31.425Z,30.80
2022-10-19T18:37:03.449Z,36.30
2022-10-19T18:39:36.235Z,39.70
2022-10-19T18:42:08.238Z,50.20
2022-10-19T18:44:40.321Z,42.80
2022-10-19T18:47:12.685Z,30.10
2022-10-19T18:49:44.632Z,14.20
2022-10-19T18:52:16.595Z,27.90
2022-10-19T18:54:48.522Z,19.90
2022-10-19T18:57:20.511Z,32.70
2022-10-19T18:59:52.474Z,33.50
2022-10-19T19:02:34.933Z,41.80
2022-10-19T19:05:14.542Z,45.10
2022-10-19T19:07:46.503Z,36.50
2022-10-19T19:10:18.970Z,52.80
2022-10-19T19:12:52.182Z,39.50
2022-10-19T19:15:24.075Z,40.30
2022-10-19T19:17:57.777Z,52.50
2022-10-19T19:20:29.762Z,54.00
2022-10-19T19:23:01.885Z,56.40
2022-10-19T19:25:33.826Z,48.60
2022-10-19T19:28:05.791Z,51.00
2022-10-19T19:30:42.998Z,25.30
2022-10-19T19:33:15.523Z,27.40
2022-10-19T19:35:48.637Z,25.80
2022-10-19T19:38:20.765Z,27.10
2022-10-19T19:40:52.710Z,43.80
2022-10-19T19:43:24.766Z,64.50
2022-10-19T19:46:04.615Z,57.50
2022-10-19T19:48:40.738Z,64.50
2022-10-19T19:51:14.478Z,50.30
2022-10-19T19:53:47.262Z,34.30
2022-10-19T19:56:20.721Z,42.60
2022-10-19T19:58:57.052Z,31.00
2022-10-19T20:01:29.379Z,41.20
2022-10-19T20:06:41.499Z,26.50
2022-10-19T20:09:13.500Z,26.10
2022-10-19T20:11:46.754Z,22.40
2022-10-19T20:14:18.887Z,45.20
2022-10-19T20:16:51.169Z,56.50
2022-10-19T20:19:23.180Z,75.60
2022-10-19T20:21:56.404Z,84.50
2022-10-19T20:24:28.481Z,55.90
2022-10-19T20:27:00.455Z,32.60
2022-10-19T20:29:32.560Z,28.50
2022-10-19T20:32:04.505Z,26.70
2022-10-19T20:34:37.468Z,21.20
2022-10-19T20:37:10.254Z,26.80
2022-10-19T20:39:42.176Z,38.40
2022-10-19T20:42:14.260Z,43.30
2022-10-19T20:44:46.622Z,47.40
2022-10-19T20:47:18.562Z,39.70
2022-10-19T20:49:50.671Z,30.20
2022-10-19T20:52:22.688Z,25.50
2022-10-19T20:54:54.655Z,26.40
2022-10-19T20:57:26.658Z,23.60
2022-10-19T20:59:58.624Z,13.60
2022-10-19T21:02:30.556Z,12.70
2022-10-19T21:05:02.552Z,11.00
2022-10-19T21:07:34.480Z,12.00
2022-10-19T21:10:07.191Z,12.30
2022-10-19T21:12:39.152Z,13.20
2022-10-19T21:15:12.582Z,11.30
2022-10-19T21:17:44.539Z,14.40
2022-10-19T21:20:16.740Z,17.40
2022-10-19T21:22:48.679Z,19.80
2022-10-19T21:25:20.734Z,16.70
2022-10-19T21:27:55.565Z,16.80
2022-10-19T21:30:28.034Z,16.80
2022-10-19T21:32:59.960Z,16.70
2022-10-19T21:35:31.963Z,15.20
2022-10-19T21:38:03.894Z,18.00
2022-10-19T21:40:37.796Z,13.40
2022-10-19T21:43:11.401Z,8.90
2022-10-19T21:45:43.397Z,6.60
2022-10-19T21:48:15.451Z,5.90
2022-10-19T21:50:47.459Z,8.50
2022-10-19T21:53:23.660Z,7.00
2022-10-19T21:55:56.352Z,13.00
2022-10-19T21:58:29.054Z,9.90
2022-10-19T22:01:08.709Z,9.40
2022-10-19T22:03:40.893Z,8.70
2022-10-19T22:06:14.121Z,10.50
2022-10-19T22:08:49.306Z,10.00
2022-10-19T22:11:21.737Z,10.60
2022-10-19T22:13:56.926Z,15.40
2022-10-19T22:16:30.474Z,13.10
2022-10-19T22:19:02.463Z,15.50
2022-10-19T22:21:35.713Z,13.30
2022-10-19T22:24:10.865Z,10.40
2022-10-19T22:26:44.944Z,7.40
2022-10-19T22:29:17.015Z,5.40
2022-10-19T22:31:49.065Z,4.70
2022-10-19T22:34:21.221Z,5.40
2022-10-19T22:36:53.503Z,5.70
2022-10-19T22:39:27.792Z,4.90
2022-10-19T22:42:52.950Z,6.50
2022-10-19T22:45:39.938Z,5.70
2022-10-19T22:48:12.014Z,6.10
2022-10-19T22:50:44.560Z,6.60
2022-10-19T22:53:16.485Z,7.40
2022-10-19T22:55:48.450Z,7.70
2022-10-19T22:58:20.765Z,6.90
2022-10-19T23:01:03.600Z,7.60
2022-10-19T23:03:36.314Z,7.00
2022-10-19T23:06:09.430Z,9.70
2022-10-19T23:08:41.912Z,11.30
2022-10-19T23:11:14.468Z,9.80
2022-10-19T23:13:46.403Z,11.40
2022-10-19T23:16:18.404Z,9.90
2022-10-19T23:18:50.474Z,9.50
2022-10-19T23:21:22.602Z,13.50
2022-10-19T23:23:54.750Z,11.50
2022-10-19T23:26:27.036Z,12.30
2022-10-19T23:28:58.911Z,11.80
2022-10-19T23:31:31.238Z,11.00
2022-10-19T23:34:03.165Z,12.40
2022-10-19T23:36:35.107Z,11.40
2022-10-19T23:39:07.780Z,13.70
2022-10-19T23:41:39.706Z,14.10
2022-10-19T23:44:12.084Z,10.20
2022-10-19T23:46:44.115Z,8.70
2022-10-19T23:49:16.445Z,8.50
2022-10-19T23:51:48.461Z,8.70
2022-10-19T23:54:20.370Z,10.10
2022-10-19T23:56:52.370Z,19.80
2022-10-19T23:59:24.642Z,19.10
